sensor_id;sensor_type;location;lat;lon;timestamp;P1;durP1;ratioP1;P2;durP2;ratioP2
41861;SDS011;27537;57.134;-2.136;2024-03-02T00:01:09;6.35;;;1.83;;
41861;SDS011;27537;57.134;-2.136;2024-03-02T00:03:37;5.00;;;1.60;;
41861;SDS011;27537;57.134;-2.136;2024-03-02T00:06:04;4.97;;;1.55;;
41861;SDS011;27537;57.134;-2.136;2024-03-02T00:08:31;10.65;;;3.05;;
41861;SDS011;27537;57.134;-2.136;2024-03-02T00:10:58;6.35;;;1.83;;
41861;SDS011;27537;57.134;-2.136;2024-03-02T00:13:26;5.20;;;1.55;;
41861;SDS011;27537;57.134;-2.136;2024-03-02T00:15:54;4.45;;;1.40;;
41861;SDS011;27537;57.134;-2.136;2024-03-02T00:18:31;7.75;;;1.70;;
41861;SDS011;27537;57.134;-2.136;2024-03-02T00:20:59;5.47;;;1.48;;
41861;SDS011;27537;57.134;-2.136;2024-03-02T00:23:27;3.75;;;1.30;;
41861;SDS011;27537;57.134;-2.136;2024-03-02T00:25:57;5.03;;;1.23;;
41861;SDS011;27537;57.134;-2.136;2024-03-02T00:28:27;4.32;;;1.50;;
41861;SDS011;27537;57.134;-2.136;2024-03-02T00:33:27;7.05;;;1.50;;
41861;SDS011;27537;57.134;-2.136;2024-03-02T00:35:56;6.90;;;1.42;;
41861;SDS011;27537;57.134;-2.136;2024-03-02T00:38:23;7.88;;;1.38;;
41861;SDS011;27537;57.134;-2.136;2024-03-02T00:40:50;6.15;;;1.42;;
41861;SDS011;27537;57.134;-2.136;2024-03-02T00:43:38;3.97;;;1.10;;
41861;SDS011;27537;57.134;-2.136;2024-03-02T00:46:23;9.60;;;1.40;;
41861;SDS011;27537;57.134;-2.136;2024-03-02T00:48:54;2.97;;;1.13;;
41861;SDS011;27537;57.134;-2.136;2024-03-02T00:51:23;4.88;;;1.45;;
41861;SDS011;27537;57.134;-2.136;2024-03-02T00:53:54;4.28;;;1.40;;
41861;SDS011;27537;57.134;-2.136;2024-03-02T00:56:25;2.47;;;1.10;;
41861;SDS011;27537;57.134;-2.136;2024-03-02T00:58:52;3.60;;;1.30;;
41861;SDS011;27537;57.134;-2.136;2024-03-02T01:01:19;10.05;;;1.70;;
41861;SDS011;27537;57.134;-2.136;2024-03-02T01:03:46;4.63;;;1.20;;
41861;SDS011;27537;57.134;-2.136;2024-03-02T01:06:13;7.35;;;2.53;;
41861;SDS011;27537;57.134;-2.136;2024-03-02T01:08:40;4.70;;;1.40;;
41861;SDS011;27537;57.134;-2.136;2024-03-02T01:11:07;5.90;;;1.63;;
41861;SDS011;27537;57.134;-2.136;2024-03-02T01:13:34;5.80;;;1.40;;
41861;SDS011;27537;57.134;-2.136;2024-03-02T01:16:01;4.32;;;1.52;;
41861;SDS011;27537;57.134;-2.136;2024-03-02T01:18:28;6.32;;;2.30;;
41861;SDS011;27537;57.134;-2.136;2024-03-02T01:20:55;2.95;;;1.10;;
41861;SDS011;27537;57.134;-2.136;2024-03-02T01:23:22;4.72;;;1.10;;
41861;SDS011;27537;57.134;-2.136;2024-03-02T01:25:50;2.05;;;1.00;;
41861;SDS011;27537;57.134;-2.136;2024-03-02T01:28:18;3.63;;;1.50;;
41861;SDS011;27537;57.134;-2.136;2024-03-02T01:30:45;6.28;;;1.85;;
41861;SDS011;27537;57.134;-2.136;2024-03-02T01:33:12;4.55;;;1.10;;
41861;SDS011;27537;57.134;-2.136;2024-03-02T01:35:39;3.17;;;1.20;;
41861;SDS011;27537;57.134;-2.136;2024-03-02T01:38:06;2.70;;;1.00;;
41861;SDS011;27537;57.134;-2.136;2024-03-02T01:40:36;5.47;;;1.58;;
41861;SDS011;27537;57.134;-2.136;2024-03-02T01:43:04;5.68;;;1.35;;
41861;SDS011;27537;57.134;-2.136;2024-03-02T01:45:32;9.68;;;1.88;;
41861;SDS011;27537;57.134;-2.136;2024-03-02T01:47:59;6.43;;;1.35;;
41861;SDS011;27537;57.134;-2.136;2024-03-02T01:50:29;5.10;;;1.50;;
41861;SDS011;27537;57.134;-2.136;2024-03-02T01:52:58;9.55;;;1.55;;
41861;SDS011;27537;57.134;-2.136;2024-03-02T01:55:26;5.00;;;1.25;;
41861;SDS011;27537;57.134;-2.136;2024-03-02T01:57:55;5.53;;;1.30;;
41861;SDS011;27537;57.134;-2.136;2024-03-02T02:00:22;4.93;;;1.20;;
41861;SDS011;27537;57.134;-2.136;2024-03-02T02:02:51;4.93;;;1.20;;
41861;SDS011;27537;57.134;-2.136;2024-03-02T02:05:18;8.80;;;1.33;;
41861;SDS011;27537;57.134;-2.136;2024-03-02T02:07:45;4.97;;;1.30;;
41861;SDS011;27537;57.134;-2.136;2024-03-02T02:10:11;8.45;;;1.60;;
41861;SDS011;27537;57.134;-2.136;2024-03-02T02:12:39;5.63;;;1.40;;
41861;SDS011;27537;57.134;-2.136;2024-03-02T02:17:49;6.10;;;1.50;;
41861;SDS011;27537;57.134;-2.136;2024-03-02T02:20:16;4.25;;;1.15;;
41861;SDS011;27537;57.134;-2.136;2024-03-02T02:22:55;5.80;;;1.45;;
41861;SDS011;27537;57.134;-2.136;2024-03-02T02:25:26;4.78;;;1.50;;
41861;SDS011;27537;57.134;-2.136;2024-03-02T02:27:53;5.65;;;1.63;;
41861;SDS011;27537;57.134;-2.136;2024-03-02T02:30:24;7.65;;;1.55;;
41861;SDS011;27537;57.134;-2.136;2024-03-02T02:32:53;4.80;;;1.23;;
41861;SDS011;27537;57.134;-2.136;2024-03-02T02:35:20;4.07;;;1.58;;
41861;SDS011;27537;57.134;-2.136;2024-03-02T02:37:47;5.68;;;1.25;;
41861;SDS011;27537;57.134;-2.136;2024-03-02T02:40:15;7.35;;;1.88;;
41861;SDS011;27537;57.134;-2.136;2024-03-02T02:42:41;4.13;;;1.40;;
41861;SDS011;27537;57.134;-2.136;2024-03-02T02:45:09;3.17;;;1.33;;
41861;SDS011;27537;57.134;-2.136;2024-03-02T02:47:37;5.03;;;1.50;;
41861;SDS011;27537;57.134;-2.136;2024-03-02T02:50:04;6.45;;;1.80;;
41861;SDS011;27537;57.134;-2.136;2024-03-02T02:52:33;9.75;;;1.70;;
41861;SDS011;27537;57.134;-2.136;2024-03-02T02:55:03;4.15;;;1.85;;
41861;SDS011;27537;57.134;-2.136;2024-03-02T02:57:34;6.68;;;2.08;;
41861;SDS011;27537;57.134;-2.136;2024-03-02T03:00:04;11.32;;;2.00;;
41861;SDS011;27537;57.134;-2.136;2024-03-02T03:02:37;8.70;;;2.20;;
41861;SDS011;27537;57.134;-2.136;2024-03-02T03:05:08;6.65;;;1.90;;
41861;SDS011;27537;57.134;-2.136;2024-03-02T03:07:37;6.28;;;2.08;;
41861;SDS011;27537;57.134;-2.136;2024-03-02T03:10:06;7.07;;;2.00;;
41861;SDS011;27537;57.134;-2.136;2024-03-02T03:12:34;4.72;;;1.90;;
41861;SDS011;27537;57.134;-2.136;2024-03-02T03:15:01;5.65;;;2.17;;
41861;SDS011;27537;57.134;-2.136;2024-03-02T03:17:30;7.40;;;2.53;;
41861;SDS011;27537;57.134;-2.136;2024-03-02T03:19:57;4.75;;;1.80;;
41861;SDS011;27537;57.134;-2.136;2024-03-02T03:22:25;5.60;;;2.30;;
41861;SDS011;27537;57.134;-2.136;2024-03-02T03:24:52;7.45;;;2.58;;
41861;SDS011;27537;57.134;-2.136;2024-03-02T03:27:19;5.55;;;2.20;;
41861;SDS011;27537;57.134;-2.136;2024-03-02T03:29:46;7.03;;;2.50;;
41861;SDS011;27537;57.134;-2.136;2024-03-02T03:32:13;7.65;;;2.28;;
41861;SDS011;27537;57.134;-2.136;2024-03-02T03:34:40;6.65;;;2.05;;
41861;SDS011;27537;57.134;-2.136;2024-03-02T03:37:07;10.40;;;2.70;;
41861;SDS011;27537;57.134;-2.136;2024-03-02T03:39:34;6.63;;;2.50;;
41861;SDS011;27537;57.134;-2.136;2024-03-02T03:42:02;10.80;;;2.70;;
41861;SDS011;27537;57.134;-2.136;2024-03-02T03:44:29;5.97;;;2.50;;
41861;SDS011;27537;57.134;-2.136;2024-03-02T03:46:56;6.50;;;2.22;;
41861;SDS011;27537;57.134;-2.136;2024-03-02T03:49:23;7.03;;;2.10;;
41861;SDS011;27537;57.134;-2.136;2024-03-02T03:51:50;6.18;;;2.63;;
41861;SDS011;27537;57.134;-2.136;2024-03-02T03:54:17;6.32;;;2.28;;
41861;SDS011;27537;57.134;-2.136;2024-03-02T03:56:43;7.05;;;2.42;;
41861;SDS011;27537;57.134;-2.136;2024-03-02T03:59:10;9.10;;;2.20;;
41861;SDS011;27537;57.134;-2.136;2024-03-02T04:01:37;7.03;;;2.33;;
41861;SDS011;27537;57.134;-2.136;2024-03-02T04:04:04;7.63;;;1.98;;
41861;SDS011;27537;57.134;-2.136;2024-03-02T04:06:31;5.60;;;2.05;;
41861;SDS011;27537;57.134;-2.136;2024-03-02T04:08:58;5.00;;;1.98;;
41861;SDS011;27537;57.134;-2.136;2024-03-02T04:11:25;8.43;;;2.50;;
41861;SDS011;27537;57.134;-2.136;2024-03-02T04:13:52;7.57;;;2.95;;
41861;SDS011;27537;57.134;-2.136;2024-03-02T04:16:22;7.60;;;2.40;;
41861;SDS011;27537;57.134;-2.136;2024-03-02T04:18:49;7.72;;;2.78;;
41861;SDS011;27537;57.134;-2.136;2024-03-02T04:21:15;7.55;;;2.20;;
41861;SDS011;27537;57.134;-2.136;2024-03-02T04:23:42;6.10;;;1.92;;
41861;SDS011;27537;57.134;-2.136;2024-03-02T04:26:09;4.95;;;1.90;;
41861;SDS011;27537;57.134;-2.136;2024-03-02T04:28:35;9.20;;;2.17;;
41861;SDS011;27537;57.134;-2.136;2024-03-02T04:31:02;8.90;;;2.47;;
41861;SDS011;27537;57.134;-2.136;2024-03-02T04:33:29;6.93;;;2.00;;
41861;SDS011;27537;57.134;-2.136;2024-03-02T04:35:56;5.47;;;2.05;;
41861;SDS011;27537;57.134;-2.136;2024-03-02T04:38:24;3.45;;;1.30;;
41861;SDS011;27537;57.134;-2.136;2024-03-02T04:40:50;6.57;;;1.98;;
41861;SDS011;27537;57.134;-2.136;2024-03-02T04:43:17;9.73;;;3.15;;
41861;SDS011;27537;57.134;-2.136;2024-03-02T04:45:44;3.47;;;1.50;;
41861;SDS011;27537;57.134;-2.136;2024-03-02T04:48:11;5.45;;;1.90;;
41861;SDS011;27537;57.134;-2.136;2024-03-02T04:50:38;6.65;;;1.70;;
41861;SDS011;27537;57.134;-2.136;2024-03-02T04:53:04;5.18;;;2.00;;
41861;SDS011;27537;57.134;-2.136;2024-03-02T04:55:31;4.43;;;1.48;;
41861;SDS011;27537;57.134;-2.136;2024-03-02T04:58:00;10.60;;;3.20;;
41861;SDS011;27537;57.134;-2.136;2024-03-02T05:00:30;4.38;;;1.52;;
41861;SDS011;27537;57.134;-2.136;2024-03-02T05:02:57;5.07;;;1.55;;
41861;SDS011;27537;57.134;-2.136;2024-03-02T05:05:23;6.28;;;1.65;;
41861;SDS011;27537;57.134;-2.136;2024-03-02T05:07:50;5.18;;;1.90;;
41861;SDS011;27537;57.134;-2.136;2024-03-02T05:10:17;3.15;;;1.40;;
41861;SDS011;27537;57.134;-2.136;2024-03-02T05:12:43;4.68;;;1.75;;
41861;SDS011;27537;57.134;-2.136;2024-03-02T05:15:11;4.35;;;1.50;;
41861;SDS011;27537;57.134;-2.136;2024-03-02T05:17:41;6.47;;;2.25;;
41861;SDS011;27537;57.134;-2.136;2024-03-02T05:20:12;4.78;;;1.50;;
41861;SDS011;27537;57.134;-2.136;2024-03-02T05:22:39;3.78;;;1.50;;
41861;SDS011;27537;57.134;-2.136;2024-03-02T05:25:06;4.38;;;1.70;;
41861;SDS011;27537;57.134;-2.136;2024-03-02T05:27:33;7.45;;;1.77;;
41861;SDS011;27537;57.134;-2.136;2024-03-02T05:30:00;6.57;;;1.75;;
41861;SDS011;27537;57.134;-2.136;2024-03-02T05:32:27;5.25;;;1.92;;
41861;SDS011;27537;57.134;-2.136;2024-03-02T05:34:54;6.28;;;2.20;;
41861;SDS011;27537;57.134;-2.136;2024-03-02T05:37:21;6.43;;;2.15;;
41861;SDS011;27537;57.134;-2.136;2024-03-02T05:39:48;5.03;;;1.70;;
41861;SDS011;27537;57.134;-2.136;2024-03-02T05:42:15;5.57;;;1.77;;
41861;SDS011;27537;57.134;-2.136;2024-03-02T05:44:43;5.80;;;1.92;;
41861;SDS011;27537;57.134;-2.136;2024-03-02T05:47:10;6.80;;;1.70;;
41861;SDS011;27537;57.134;-2.136;2024-03-02T05:49:36;4.68;;;1.63;;
41861;SDS011;27537;57.134;-2.136;2024-03-02T05:52:03;5.75;;;2.00;;
41861;SDS011;27537;57.134;-2.136;2024-03-02T05:54:30;7.75;;;1.92;;
41861;SDS011;27537;57.134;-2.136;2024-03-02T05:56:57;5.72;;;2.22;;
41861;SDS011;27537;57.134;-2.136;2024-03-02T05:59:43;5.50;;;2.03;;
41861;SDS011;27537;57.134;-2.136;2024-03-02T06:02:12;6.72;;;2.05;;
41861;SDS011;27537;57.134;-2.136;2024-03-02T06:04:39;6.00;;;2.10;;
41861;SDS011;27537;57.134;-2.136;2024-03-02T06:07:06;3.83;;;1.70;;
41861;SDS011;27537;57.134;-2.136;2024-03-02T06:09:33;6.20;;;2.30;;
41861;SDS011;27537;57.134;-2.136;2024-03-02T06:11:59;5.20;;;1.90;;
41861;SDS011;27537;57.134;-2.136;2024-03-02T06:14:26;4.68;;;1.67;;
41861;SDS011;27537;57.134;-2.136;2024-03-02T06:16:53;5.07;;;1.77;;
41861;SDS011;27537;57.134;-2.136;2024-03-02T06:19:20;5.45;;;1.88;;
41861;SDS011;27537;57.134;-2.136;2024-03-02T06:21:46;4.68;;;1.73;;
41861;SDS011;27537;57.134;-2.136;2024-03-02T06:24:13;5.18;;;1.90;;
41861;SDS011;27537;57.134;-2.136;2024-03-02T06:26:40;6.25;;;2.25;;
41861;SDS011;27537;57.134;-2.136;2024-03-02T06:29:06;9.13;;;2.85;;
41861;SDS011;27537;57.134;-2.136;2024-03-02T06:31:34;5.55;;;1.90;;
41861;SDS011;27537;57.134;-2.136;2024-03-02T06:34:01;5.50;;;1.83;;
41861;SDS011;27537;57.134;-2.136;2024-03-02T06:36:30;3.95;;;1.60;;
41861;SDS011;27537;57.134;-2.136;2024-03-02T06:38:56;5.40;;;1.80;;
41861;SDS011;27537;57.134;-2.136;2024-03-02T06:41:23;7.00;;;2.78;;
41861;SDS011;27537;57.134;-2.136;2024-03-02T06:43:50;8.98;;;3.15;;
41861;SDS011;27537;57.134;-2.136;2024-03-02T06:46:20;6.10;;;2.05;;
41861;SDS011;27537;57.134;-2.136;2024-03-02T06:48:47;8.70;;;2.53;;
41861;SDS011;27537;57.134;-2.136;2024-03-02T06:51:14;8.45;;;2.45;;
41861;SDS011;27537;57.134;-2.136;2024-03-02T06:53:42;4.28;;;1.90;;
41861;SDS011;27537;57.134;-2.136;2024-03-02T06:56:08;5.63;;;2.15;;
41861;SDS011;27537;57.134;-2.136;2024-03-02T06:58:35;8.93;;;2.72;;
41861;SDS011;27537;57.134;-2.136;2024-03-02T07:01:02;8.63;;;2.53;;
41861;SDS011;27537;57.134;-2.136;2024-03-02T07:03:29;9.77;;;2.22;;
41861;SDS011;27537;57.134;-2.136;2024-03-02T07:05:55;8.65;;;2.60;;
41861;SDS011;27537;57.134;-2.136;2024-03-02T07:08:23;6.45;;;2.45;;
41861;SDS011;27537;57.134;-2.136;2024-03-02T07:10:50;8.30;;;3.17;;
41861;SDS011;27537;57.134;-2.136;2024-03-02T07:13:16;9.38;;;2.90;;
41861;SDS011;27537;57.134;-2.136;2024-03-02T07:15:43;8.77;;;3.60;;
41861;SDS011;27537;57.134;-2.136;2024-03-02T07:18:31;7.93;;;3.05;;
41861;SDS011;27537;57.134;-2.136;2024-03-02T07:20:59;10.02;;;2.97;;
41861;SDS011;27537;57.134;-2.136;2024-03-02T07:23:27;13.63;;;2.65;;
41861;SDS011;27537;57.134;-2.136;2024-03-02T07:25:54;14.27;;;3.15;;
41861;SDS011;27537;57.134;-2.136;2024-03-02T07:28:25;7.47;;;3.05;;
41861;SDS011;27537;57.134;-2.136;2024-03-02T07:31:02;7.28;;;2.45;;
41861;SDS011;27537;57.134;-2.136;2024-03-02T07:33:30;10.43;;;2.70;;
41861;SDS011;27537;57.134;-2.136;2024-03-02T07:35:58;8.88;;;2.28;;
41861;SDS011;27537;57.134;-2.136;2024-03-02T07:38:30;7.20;;;2.45;;
41861;SDS011;27537;57.134;-2.136;2024-03-02T07:40:57;6.47;;;2.13;;
41861;SDS011;27537;57.134;-2.136;2024-03-02T07:43:24;6.70;;;2.47;;
41861;SDS011;27537;57.134;-2.136;2024-03-02T07:45:51;6.78;;;2.25;;
41861;SDS011;27537;57.134;-2.136;2024-03-02T07:48:18;6.88;;;2.40;;
41861;SDS011;27537;57.134;-2.136;2024-03-02T07:50:44;11.75;;;3.45;;
41861;SDS011;27537;57.134;-2.136;2024-03-02T07:53:11;12.70;;;4.15;;
41861;SDS011;27537;57.134;-2.136;2024-03-02T07:55:38;7.70;;;3.22;;
41861;SDS011;27537;57.134;-2.136;2024-03-02T07:58:04;9.15;;;3.08;;
41861;SDS011;27537;57.134;-2.136;2024-03-02T08:00:31;11.63;;;3.63;;
41861;SDS011;27537;57.134;-2.136;2024-03-02T08:02:58;10.95;;;4.05;;
41861;SDS011;27537;57.134;-2.136;2024-03-02T08:05:25;11.75;;;3.78;;
41861;SDS011;27537;57.134;-2.136;2024-03-02T08:07:53;10.30;;;3.90;;
41861;SDS011;27537;57.134;-2.136;2024-03-02T08:10:20;10.93;;;3.60;;
41861;SDS011;27537;57.134;-2.136;2024-03-02T08:12:47;8.30;;;2.65;;
41861;SDS011;27537;57.134;-2.136;2024-03-02T08:15:14;8.82;;;2.75;;
41861;SDS011;27537;57.134;-2.136;2024-03-02T08:17:40;7.97;;;2.90;;
41861;SDS011;27537;57.134;-2.136;2024-03-02T08:20:15;7.45;;;2.70;;
41861;SDS011;27537;57.134;-2.136;2024-03-02T08:22:42;8.60;;;2.72;;
41861;SDS011;27537;57.134;-2.136;2024-03-02T08:25:09;6.95;;;2.15;;
41861;SDS011;27537;57.134;-2.136;2024-03-02T08:27:36;7.60;;;2.83;;
41861;SDS011;27537;57.134;-2.136;2024-03-02T08:30:03;9.00;;;2.70;;
41861;SDS011;27537;57.134;-2.136;2024-03-02T08:32:33;8.40;;;3.13;;
41861;SDS011;27537;57.134;-2.136;2024-03-02T08:35:00;7.57;;;3.03;;
41861;SDS011;27537;57.134;-2.136;2024-03-02T08:37:27;7.75;;;2.83;;
41861;SDS011;27537;57.134;-2.136;2024-03-02T08:39:54;8.52;;;3.40;;
41861;SDS011;27537;57.134;-2.136;2024-03-02T08:42:21;10.73;;;4.63;;
41861;SDS011;27537;57.134;-2.136;2024-03-02T08:44:50;7.95;;;3.20;;
41861;SDS011;27537;57.134;-2.136;2024-03-02T08:47:17;7.75;;;3.30;;
41861;SDS011;27537;57.134;-2.136;2024-03-02T08:49:44;9.15;;;3.63;;
41861;SDS011;27537;57.134;-2.136;2024-03-02T08:52:13;8.80;;;3.42;;
41861;SDS011;27537;57.134;-2.136;2024-03-02T08:54:39;6.63;;;3.00;;
41861;SDS011;27537;57.134;-2.136;2024-03-02T08:57:06;6.90;;;2.42;;
41861;SDS011;27537;57.134;-2.136;2024-03-02T08:59:33;6.95;;;2.70;;
41861;SDS011;27537;57.134;-2.136;2024-03-02T09:02:00;8.10;;;2.90;;
41861;SDS011;27537;57.134;-2.136;2024-03-02T09:04:27;9.63;;;4.85;;
41861;SDS011;27537;57.134;-2.136;2024-03-02T09:07:00;6.82;;;2.63;;
41861;SDS011;27537;57.134;-2.136;2024-03-02T09:09:27;6.53;;;2.50;;
41861;SDS011;27537;57.134;-2.136;2024-03-02T09:11:53;8.45;;;2.55;;
41861;SDS011;27537;57.134;-2.136;2024-03-02T09:14:24;9.27;;;3.03;;
41861;SDS011;27537;57.134;-2.136;2024-03-02T09:16:51;5.93;;;2.30;;
41861;SDS011;27537;57.134;-2.136;2024-03-02T09:19:18;6.75;;;2.60;;
41861;SDS011;27537;57.134;-2.136;2024-03-02T09:21:45;7.30;;;2.35;;
41861;SDS011;27537;57.134;-2.136;2024-03-02T09:24:11;7.95;;;3.00;;
41861;SDS011;27537;57.134;-2.136;2024-03-02T09:26:43;11.45;;;3.20;;
41861;SDS011;27537;57.134;-2.136;2024-03-02T09:29:10;7.40;;;2.55;;
41861;SDS011;27537;57.134;-2.136;2024-03-02T09:31:40;5.10;;;1.80;;
41861;SDS011;27537;57.134;-2.136;2024-03-02T09:34:07;5.95;;;2.22;;
41861;SDS011;27537;57.134;-2.136;2024-03-02T09:36:34;6.32;;;2.38;;
41861;SDS011;27537;57.134;-2.136;2024-03-02T09:39:01;7.00;;;2.20;;
41861;SDS011;27537;57.134;-2.136;2024-03-02T09:41:30;8.52;;;2.30;;
41861;SDS011;27537;57.134;-2.136;2024-03-02T09:43:59;6.13;;;2.28;;
41861;SDS011;27537;57.134;-2.136;2024-03-02T09:46:26;8.65;;;2.55;;
41861;SDS011;27537;57.134;-2.136;2024-03-02T09:48:53;6.68;;;2.20;;
41861;SDS011;27537;57.134;-2.136;2024-03-02T09:51:19;10.73;;;2.80;;
41861;SDS011;27537;57.134;-2.136;2024-03-02T09:53:47;5.50;;;2.00;;
41861;SDS011;27537;57.134;-2.136;2024-03-02T09:56:13;4.78;;;1.88;;
41861;SDS011;27537;57.134;-2.136;2024-03-02T09:58:42;5.72;;;1.80;;
41861;SDS011;27537;57.134;-2.136;2024-03-02T10:01:10;5.90;;;2.00;;
41861;SDS011;27537;57.134;-2.136;2024-03-02T10:03:37;4.60;;;1.88;;
41861;SDS011;27537;57.134;-2.136;2024-03-02T10:06:21;5.10;;;1.95;;
41861;SDS011;27537;57.134;-2.136;2024-03-02T10:08:51;4.05;;;1.83;;
41861;SDS011;27537;57.134;-2.136;2024-03-02T10:11:36;5.57;;;1.92;;
41861;SDS011;27537;57.134;-2.136;2024-03-02T10:14:06;3.42;;;1.30;;
41861;SDS011;27537;57.134;-2.136;2024-03-02T10:16:41;5.72;;;1.83;;
41861;SDS011;27537;57.134;-2.136;2024-03-02T10:19:19;5.28;;;1.67;;
41861;SDS011;27537;57.134;-2.136;2024-03-02T10:21:48;2.97;;;1.20;;
41861;SDS011;27537;57.134;-2.136;2024-03-02T10:24:21;2.80;;;1.33;;
41861;SDS011;27537;57.134;-2.136;2024-03-02T10:26:50;2.95;;;1.15;;
41861;SDS011;27537;57.134;-2.136;2024-03-02T10:29:17;4.65;;;1.42;;
41861;SDS011;27537;57.134;-2.136;2024-03-02T10:31:45;3.97;;;1.25;;
41861;SDS011;27537;57.134;-2.136;2024-03-02T10:34:15;4.25;;;1.20;;
41861;SDS011;27537;57.134;-2.136;2024-03-02T10:36:44;2.60;;;1.10;;
41861;SDS011;27537;57.134;-2.136;2024-03-02T10:39:12;3.90;;;1.35;;
41861;SDS011;27537;57.134;-2.136;2024-03-02T10:41:40;2.45;;;1.20;;
41861;SDS011;27537;57.134;-2.136;2024-03-02T10:44:08;3.15;;;1.17;;
41861;SDS011;27537;57.134;-2.136;2024-03-02T10:46:36;1.90;;;1.00;;
41861;SDS011;27537;57.134;-2.136;2024-03-02T10:49:04;2.00;;;1.20;;
41861;SDS011;27537;57.134;-2.136;2024-03-02T10:51:34;2.38;;;1.00;;
41861;SDS011;27537;57.134;-2.136;2024-03-02T10:54:04;5.32;;;1.40;;
41861;SDS011;27537;57.134;-2.136;2024-03-02T10:56:39;2.45;;;1.10;;
41861;SDS011;27537;57.134;-2.136;2024-03-02T10:59:13;2.33;;;1.10;;
41861;SDS011;27537;57.134;-2.136;2024-03-02T11:01:48;4.72;;;1.65;;
41861;SDS011;27537;57.134;-2.136;2024-03-02T11:04:18;3.90;;;1.52;;
41861;SDS011;27537;57.134;-2.136;2024-03-02T11:06:49;3.42;;;1.30;;
41861;SDS011;27537;57.134;-2.136;2024-03-02T11:09:20;3.08;;;1.33;;
41861;SDS011;27537;57.134;-2.136;2024-03-02T11:11:49;10.32;;;7.22;;
41861;SDS011;27537;57.134;-2.136;2024-03-02T11:14:23;6.75;;;2.58;;
41861;SDS011;27537;57.134;-2.136;2024-03-02T11:16:51;5.03;;;2.08;;
41861;SDS011;27537;57.134;-2.136;2024-03-02T11:19:19;5.15;;;2.25;;
41861;SDS011;27537;57.134;-2.136;2024-03-02T11:21:46;4.75;;;1.73;;
41861;SDS011;27537;57.134;-2.136;2024-03-02T11:26:48;3.63;;;1.52;;
41861;SDS011;27537;57.134;-2.136;2024-03-02T11:32:05;5.68;;;2.10;;
41861;SDS011;27537;57.134;-2.136;2024-03-02T11:34:40;5.07;;;1.83;;
41861;SDS011;27537;57.134;-2.136;2024-03-02T11:37:11;6.18;;;1.90;;
41861;SDS011;27537;57.134;-2.136;2024-03-02T11:39:39;6.00;;;2.15;;
41861;SDS011;27537;57.134;-2.136;2024-03-02T11:42:06;8.25;;;1.80;;
41861;SDS011;27537;57.134;-2.136;2024-03-02T11:44:36;4.85;;;2.03;;
41861;SDS011;27537;57.134;-2.136;2024-03-02T11:47:07;4.97;;;1.85;;
41861;SDS011;27537;57.134;-2.136;2024-03-02T11:49:38;5.07;;;1.70;;
41861;SDS011;27537;57.134;-2.136;2024-03-02T11:52:10;4.03;;;1.73;;
41861;SDS011;27537;57.134;-2.136;2024-03-02T11:54:39;6.00;;;2.65;;
41861;SDS011;27537;57.134;-2.136;2024-03-02T11:57:13;5.03;;;1.98;;
41861;SDS011;27537;57.134;-2.136;2024-03-02T11:59:41;5.15;;;1.75;;
41861;SDS011;27537;57.134;-2.136;2024-03-02T12:02:15;5.78;;;2.08;;
41861;SDS011;27537;57.134;-2.136;2024-03-02T12:04:45;7.43;;;2.22;;
41861;SDS011;27537;57.134;-2.136;2024-03-02T12:07:13;7.65;;;2.53;;
41861;SDS011;27537;57.134;-2.136;2024-03-02T12:09:46;5.75;;;2.00;;
41861;SDS011;27537;57.134;-2.136;2024-03-02T12:12:12;6.38;;;2.30;;
41861;SDS011;27537;57.134;-2.136;2024-03-02T12:14:49;7.00;;;2.20;;
41861;SDS011;27537;57.134;-2.136;2024-03-02T12:17:17;5.72;;;2.25;;
41861;SDS011;27537;57.134;-2.136;2024-03-02T12:19:45;7.07;;;2.35;;
41861;SDS011;27537;57.134;-2.136;2024-03-02T12:22:14;5.20;;;2.40;;
41861;SDS011;27537;57.134;-2.136;2024-03-02T12:24:43;5.53;;;1.98;;
41861;SDS011;27537;57.134;-2.136;2024-03-02T12:27:12;6.90;;;2.40;;
41861;SDS011;27537;57.134;-2.136;2024-03-02T12:29:41;4.93;;;1.90;;
41861;SDS011;27537;57.134;-2.136;2024-03-02T12:32:08;5.53;;;2.10;;
41861;SDS011;27537;57.134;-2.136;2024-03-02T12:34:46;5.57;;;2.00;;
41861;SDS011;27537;57.134;-2.136;2024-03-02T12:37:18;4.85;;;1.88;;
41861;SDS011;27537;57.134;-2.136;2024-03-02T12:39:46;4.63;;;1.67;;
41861;SDS011;27537;57.134;-2.136;2024-03-02T12:42:14;6.05;;;1.75;;
41861;SDS011;27537;57.134;-2.136;2024-03-02T12:44:41;7.40;;;1.70;;
41861;SDS011;27537;57.134;-2.136;2024-03-02T12:47:09;4.25;;;1.60;;
41861;SDS011;27537;57.134;-2.136;2024-03-02T12:49:40;4.57;;;1.40;;
41861;SDS011;27537;57.134;-2.136;2024-03-02T12:52:07;8.02;;;1.52;;
41861;SDS011;27537;57.134;-2.136;2024-03-02T12:54:35;7.20;;;1.40;;
41861;SDS011;27537;57.134;-2.136;2024-03-02T12:57:04;8.05;;;2.40;;
41861;SDS011;27537;57.134;-2.136;2024-03-02T12:59:31;6.35;;;1.60;;
41861;SDS011;27537;57.134;-2.136;2024-03-02T13:01:58;12.80;;;1.77;;
41861;SDS011;27537;57.134;-2.136;2024-03-02T13:04:25;6.78;;;1.73;;
41861;SDS011;27537;57.134;-2.136;2024-03-02T13:06:53;7.13;;;1.60;;
41861;SDS011;27537;57.134;-2.136;2024-03-02T13:09:20;8.38;;;1.60;;
41861;SDS011;27537;57.134;-2.136;2024-03-02T13:11:47;8.55;;;1.70;;
41861;SDS011;27537;57.134;-2.136;2024-03-02T13:14:14;7.20;;;1.83;;
41861;SDS011;27537;57.134;-2.136;2024-03-02T13:16:42;8.88;;;1.67;;
41861;SDS011;27537;57.134;-2.136;2024-03-02T13:19:13;7.75;;;1.40;;
41861;SDS011;27537;57.134;-2.136;2024-03-02T13:21:41;10.63;;;1.52;;
41861;SDS011;27537;57.134;-2.136;2024-03-02T13:24:09;6.90;;;1.35;;
41861;SDS011;27537;57.134;-2.136;2024-03-02T13:26:36;4.85;;;1.40;;
41861;SDS011;27537;57.134;-2.136;2024-03-02T13:29:02;4.60;;;1.40;;
41861;SDS011;27537;57.134;-2.136;2024-03-02T13:31:29;7.03;;;1.58;;
41861;SDS011;27537;57.134;-2.136;2024-03-02T13:33:56;7.03;;;1.60;;
41861;SDS011;27537;57.134;-2.136;2024-03-02T13:36:22;5.50;;;1.80;;
41861;SDS011;27537;57.134;-2.136;2024-03-02T13:38:50;7.25;;;1.40;;
41861;SDS011;27537;57.134;-2.136;2024-03-02T13:41:17;8.52;;;1.63;;
41861;SDS011;27537;57.134;-2.136;2024-03-02T13:43:44;5.15;;;1.60;;
41861;SDS011;27537;57.134;-2.136;2024-03-02T13:46:11;6.07;;;1.55;;
41861;SDS011;27537;57.134;-2.136;2024-03-02T13:48:38;5.40;;;1.70;;
41861;SDS011;27537;57.134;-2.136;2024-03-02T13:51:05;7.07;;;1.73;;
41861;SDS011;27537;57.134;-2.136;2024-03-02T13:53:32;5.63;;;1.40;;
41861;SDS011;27537;57.134;-2.136;2024-03-02T13:55:58;9.75;;;2.00;;
41861;SDS011;27537;57.134;-2.136;2024-03-02T13:58:25;12.35;;;3.20;;
41861;SDS011;27537;57.134;-2.136;2024-03-02T14:00:52;7.90;;;1.80;;
41861;SDS011;27537;57.134;-2.136;2024-03-02T14:03:19;11.95;;;2.08;;
41861;SDS011;27537;57.134;-2.136;2024-03-02T14:05:49;5.70;;;1.45;;
41861;SDS011;27537;57.134;-2.136;2024-03-02T14:08:17;8.07;;;1.67;;
41861;SDS011;27537;57.134;-2.136;2024-03-02T14:10:44;7.63;;;1.67;;
41861;SDS011;27537;57.134;-2.136;2024-03-02T14:13:11;7.25;;;1.30;;
41861;SDS011;27537;57.134;-2.136;2024-03-02T14:15:37;6.13;;;1.63;;
41861;SDS011;27537;57.134;-2.136;2024-03-02T14:18:07;7.80;;;1.58;;
41861;SDS011;27537;57.134;-2.136;2024-03-02T14:20:37;6.10;;;1.50;;
41861;SDS011;27537;57.134;-2.136;2024-03-02T14:23:04;6.93;;;1.77;;
41861;SDS011;27537;57.134;-2.136;2024-03-02T14:25:30;9.18;;;1.60;;
41861;SDS011;27537;57.134;-2.136;2024-03-02T14:28:00;5.90;;;1.27;;
41861;SDS011;27537;57.134;-2.136;2024-03-02T14:30:47;7.60;;;1.50;;
41861;SDS011;27537;57.134;-2.136;2024-03-02T14:33:14;4.90;;;1.40;;
41861;SDS011;27537;57.134;-2.136;2024-03-02T14:35:41;9.45;;;1.40;;
41861;SDS011;27537;57.134;-2.136;2024-03-02T14:38:08;3.80;;;1.30;;
41861;SDS011;27537;57.134;-2.136;2024-03-02T14:40:34;8.80;;;1.50;;
41861;SDS011;27537;57.134;-2.136;2024-03-02T14:43:01;8.27;;;1.73;;
41861;SDS011;27537;57.134;-2.136;2024-03-02T14:45:28;8.73;;;2.10;;
41861;SDS011;27537;57.134;-2.136;2024-03-02T14:47:54;6.75;;;1.73;;
41861;SDS011;27537;57.134;-2.136;2024-03-02T14:50:22;9.07;;;1.67;;